Terminal Aerodrome Forecast
Issued by NWS

Home | Current Version | Previous Version | Text Only | Print | Product List | Glossary On
Versions: 1 2 3 4 5 6 7 8 9 10 11 12 13
653
FTUS45 KRIW 092328
TAFJAC
TAF
KJAC 092328Z 1000/1024 VRB03KT P6SM FEW003 FEW020
     FM100100 34005KT P6SM SKC
     FM100500 VRB03KT P6SM BCFG SCT005 SCT020
     FM101700 VRB05KT P6SM FEW005
     FM102000 20011KT P6SM SCT200
      AMD LTD TO CLD VIS AND WIND=

USA.gov is the U.S. government's official web portal to all federal, state and local government web resources and services.